createdAt,value
2019-04-10T00:02:25.884Z,36.53
2019-04-10T00:04:55.787Z,37.20
2019-04-10T00:07:25.699Z,37.73
2019-04-10T00:09:55.168Z,36.50
2019-04-10T00:12:25.389Z,37.65
2019-04-10T00:14:56.753Z,38.13
2019-04-10T00:17:26.802Z,38.40
2019-04-10T00:19:56.375Z,37.28
2019-04-10T00:22:27.012Z,37.40
2019-04-10T00:24:56.607Z,39.13
2019-04-10T00:27:26.318Z,37.33
2019-04-10T00:29:56.479Z,38.13
2019-04-10T00:32:25.858Z,38.85
2019-04-10T00:34:56.108Z,39.25
2019-04-10T00:37:28.476Z,37.00
2019-04-10T00:39:57.109Z,36.30
2019-04-10T00:42:27.429Z,36.00
2019-04-10T00:44:56.952Z,36.88
2019-04-10T00:47:26.740Z,38.35
2019-04-10T00:49:56.103Z,36.60
2019-04-10T00:52:25.391Z,36.83
2019-04-10T00:54:55.354Z,38.70
2019-04-10T00:57:25.456Z,37.28
2019-04-10T00:59:54.792Z,37.38
2019-04-10T01:02:24.832Z,37.65
2019-04-10T01:04:55.053Z,34.80
2019-04-10T01:07:44.702Z,36.58
2019-04-10T01:10:15.032Z,37.13
2019-04-10T01:12:44.324Z,38.20
2019-04-10T01:15:14.184Z,37.25
2019-04-10T01:17:43.451Z,38.58
2019-04-10T01:20:13.336Z,39.45
2019-04-10T01:22:43.469Z,39.78
2019-04-10T01:25:12.817Z,38.65
2019-04-10T01:27:42.492Z,37.73
2019-04-10T01:30:11.934Z,38.40
2019-04-10T01:32:41.863Z,38.55
2019-04-10T01:35:12.325Z,38.50
2019-04-10T01:37:49.460Z,37.25
2019-04-10T01:40:12.938Z,39.98
2019-04-10T01:42:42.481Z,37.58
2019-04-10T01:45:11.742Z,38.35
2019-04-10T01:47:41.448Z,39.55
2019-04-10T01:50:10.803Z,39.42
2019-04-10T01:52:40.161Z,36.95
2019-04-10T01:55:21.296Z,36.15
2019-04-10T01:57:40.785Z,36.73
2019-04-10T02:00:11.746Z,40.12
2019-04-10T02:02:49.607Z,38.80
2019-04-10T02:05:18.965Z,40.28
2019-04-10T02:07:59.379Z,38.02
2019-04-10T02:10:20.330Z,38.85
2019-04-10T02:12:50.741Z,39.98
2019-04-10T02:15:20.429Z,40.52
2019-04-10T02:17:49.773Z,40.33
2019-04-10T02:20:19.054Z,40.92
2019-04-10T02:22:48.318Z,40.10
2019-04-10T02:25:17.941Z,37.13
2019-04-10T02:27:47.280Z,36.08
2019-04-10T02:30:19.146Z,35.38
2019-04-10T02:32:49.808Z,35.43
2019-04-10T02:35:20.312Z,35.52
2019-04-10T02:37:52.746Z,35.33
2019-04-10T02:40:21.298Z,36.73
2019-04-10T02:42:51.338Z,35.68
2019-04-10T02:45:21.957Z,36.58
2019-04-10T02:47:52.795Z,35.88
2019-04-10T02:50:22.644Z,35.85
2019-04-10T02:52:54.768Z,35.68
2019-04-10T02:55:25.048Z,36.20
2019-04-10T02:57:56.297Z,35.60
2019-04-10T03:00:26.567Z,35.68
2019-04-10T03:02:57.586Z,36.83
2019-04-10T03:05:27.561Z,37.05
2019-04-10T03:07:58.298Z,38.13
2019-04-10T03:10:38.371Z,35.75
2019-04-10T03:13:00.519Z,35.58
2019-04-10T03:15:31.335Z,36.38
2019-04-10T03:18:01.159Z,36.25
2019-04-10T03:20:30.435Z,36.53
2019-04-10T03:23:00.895Z,35.58
2019-04-10T03:25:30.191Z,36.65
2019-04-10T03:27:59.478Z,37.23
2019-04-10T03:30:29.729Z,35.30
2019-04-10T03:33:11.410Z,36.90
2019-04-10T03:35:40.955Z,35.48
2019-04-10T03:38:10.375Z,36.88
2019-04-10T03:40:39.689Z,37.20
2019-04-10T03:43:09.711Z,36.60
2019-04-10T03:45:39.067Z,36.17
2019-04-10T03:48:08.475Z,37.65
2019-04-10T03:50:37.995Z,37.38
2019-04-10T03:53:07.605Z,36.42
2019-04-10T03:55:36.913Z,36.90
2019-04-10T03:58:07.078Z,36.80
2019-04-10T04:00:36.435Z,36.85
2019-04-10T04:03:06.485Z,36.98
2019-04-10T04:05:36.898Z,36.38
2019-04-10T04:08:07.466Z,37.80
2019-04-10T04:10:37.075Z,37.17
2019-04-10T04:13:07.538Z,36.60
2019-04-10T04:15:37.914Z,37.10
2019-04-10T04:18:07.305Z,37.20
2019-04-10T04:20:37.135Z,37.00
2019-04-10T04:23:07.424Z,35.08
2019-04-10T04:25:36.855Z,35.43
2019-04-10T04:28:06.670Z,37.45
2019-04-10T04:30:36.071Z,35.80
2019-04-10T04:33:05.283Z,36.13
2019-04-10T04:35:34.683Z,35.52
2019-04-10T04:38:04.047Z,36.40
2019-04-10T04:40:35.594Z,37.40
2019-04-10T04:43:05.646Z,35.98
2019-04-10T04:45:35.492Z,36.30
2019-04-10T04:48:05.451Z,35.92
2019-04-10T04:50:35.685Z,36.80
2019-04-10T04:53:04.967Z,35.40
2019-04-10T04:55:35.187Z,35.98
2019-04-10T04:58:04.525Z,37.10
2019-04-10T05:00:34.062Z,36.17
2019-04-10T05:03:04.000Z,36.38
2019-04-10T05:05:33.609Z,36.50
2019-04-10T05:08:05.149Z,35.20
2019-04-10T05:10:33.813Z,35.40
2019-04-10T05:13:03.972Z,33.50
2019-04-10T05:15:33.367Z,34.45
2019-04-10T05:18:04.115Z,35.00
2019-04-10T05:20:43.930Z,82.75
2019-04-10T05:23:06.224Z,35.38
2019-04-10T05:25:36.019Z,34.80
2019-04-10T05:28:05.851Z,33.83
2019-04-10T05:30:35.716Z,35.23
2019-04-10T05:33:06.289Z,35.68
2019-04-10T05:35:36.425Z,34.05
2019-04-10T05:38:05.823Z,35.45
2019-04-10T05:40:35.115Z,35.58
2019-04-10T05:43:04.385Z,35.05
2019-04-10T05:45:33.921Z,34.55
2019-04-10T05:48:03.379Z,33.95
2019-04-10T05:50:32.608Z,34.95
2019-04-10T05:53:02.341Z,34.60
2019-04-10T05:55:31.659Z,38.98
2019-04-10T05:58:01.660Z,35.35
2019-04-10T06:00:31.119Z,34.48
2019-04-10T06:03:00.515Z,33.48
2019-04-10T06:05:29.959Z,34.50
2019-04-10T06:07:59.397Z,34.18
2019-04-10T06:10:28.661Z,34.85
2019-04-10T06:12:58.439Z,34.83
2019-04-10T06:15:28.715Z,35.60
2019-04-10T06:17:58.752Z,33.33
2019-04-10T06:20:29.180Z,36.05
2019-04-10T06:22:59.170Z,35.08
2019-04-10T06:25:31.167Z,37.70
2019-04-10T06:28:01.133Z,35.60
2019-04-10T06:30:30.583Z,34.85
2019-04-10T06:33:00.035Z,36.42
2019-04-10T06:35:30.202Z,34.75
2019-04-10T06:38:00.604Z,34.78
2019-04-10T06:40:30.602Z,33.63
2019-04-10T06:43:00.940Z,36.30
2019-04-10T06:45:31.479Z,35.30
2019-04-10T06:48:00.999Z,37.38
2019-04-10T06:50:31.504Z,35.00
2019-04-10T06:53:01.152Z,36.55
2019-04-10T06:55:30.634Z,35.20
2019-04-10T06:58:00.854Z,35.50
2019-04-10T07:00:30.639Z,35.38
2019-04-10T07:03:01.003Z,36.38
2019-04-10T07:05:39.748Z,37.35
2019-04-10T07:08:10.906Z,36.63
2019-04-10T07:10:47.130Z,35.75
2019-04-10T07:13:07.033Z,37.63
2019-04-10T07:15:35.712Z,36.48
2019-04-10T07:18:05.277Z,38.70
2019-04-10T07:20:34.789Z,39.25
2019-04-10T07:23:04.981Z,40.65
2019-04-10T07:25:35.354Z,38.23
2019-04-10T07:28:07.374Z,39.58
2019-04-10T07:30:36.074Z,39.70
2019-04-10T07:33:05.533Z,37.83
2019-04-10T07:35:35.878Z,39.55
2019-04-10T07:38:06.150Z,39.00
2019-04-10T07:40:36.762Z,39.38
2019-04-10T07:43:06.345Z,38.08
2019-04-10T07:45:35.705Z,39.95
2019-04-10T07:48:05.010Z,37.38
2019-04-10T07:50:34.827Z,37.42
2019-04-10T07:53:04.238Z,39.08
2019-04-10T07:55:33.598Z,38.90
2019-04-10T07:58:02.934Z,39.15
2019-04-10T08:00:32.362Z,38.90
2019-04-10T08:03:01.703Z,36.13
2019-04-10T08:05:31.000Z,36.33
2019-04-10T08:08:00.963Z,37.40
2019-04-10T08:10:30.694Z,37.73
2019-04-10T08:13:00.316Z,38.23
2019-04-10T08:15:29.743Z,37.78
2019-04-10T08:17:58.991Z,38.15
2019-04-10T08:20:30.562Z,37.58
2019-04-10T08:22:59.926Z,38.88
2019-04-10T08:25:29.262Z,37.63
2019-04-10T08:27:58.622Z,38.38
2019-04-10T08:30:28.053Z,37.73
2019-04-10T08:33:01.287Z,38.20
2019-04-10T08:35:29.278Z,41.02
2019-04-10T08:37:59.260Z,37.48
2019-04-10T08:40:28.634Z,38.67
2019-04-10T08:42:57.926Z,37.93
2019-04-10T08:45:38.621Z,40.30
2019-04-10T08:47:59.345Z,39.63
2019-04-10T08:50:28.771Z,36.68
2019-04-10T08:52:58.322Z,39.35
2019-04-10T08:55:28.250Z,39.35
2019-04-10T08:57:58.553Z,38.58
2019-04-10T09:00:28.940Z,39.55
2019-04-10T09:02:58.392Z,39.00
2019-04-10T09:05:27.893Z,38.90
2019-04-10T09:07:57.398Z,39.58
2019-04-10T09:10:26.745Z,38.90
2019-04-10T09:12:56.110Z,37.35
2019-04-10T09:15:25.750Z,39.80
2019-04-10T09:17:55.687Z,40.78
2019-04-10T09:20:25.039Z,48.02
2019-04-10T09:23:14.541Z,39.40
2019-04-10T09:25:25.291Z,38.73
2019-04-10T09:27:55.655Z,39.85
2019-04-10T09:30:26.897Z,40.98
2019-04-10T09:32:57.024Z,40.43
2019-04-10T09:35:28.671Z,40.08
2019-04-10T09:37:58.699Z,41.45
2019-04-10T09:40:28.163Z,39.60
2019-04-10T09:42:57.751Z,39.55
2019-04-10T09:45:27.095Z,41.68
2019-04-10T09:47:56.390Z,42.17
2019-04-10T09:50:26.221Z,43.10
2019-04-10T09:52:56.574Z,40.60
2019-04-10T09:55:26.019Z,43.05
2019-04-10T09:57:55.363Z,41.90
2019-04-10T10:00:25.651Z,43.02
2019-04-10T10:02:55.236Z,42.75
2019-04-10T10:05:24.622Z,43.25
2019-04-10T10:07:56.066Z,45.43
2019-04-10T10:10:24.995Z,44.58
2019-04-10T10:12:54.331Z,43.68
2019-04-10T10:15:23.799Z,40.15
2019-04-10T10:17:53.155Z,43.87
2019-04-10T10:20:23.572Z,41.18
2019-04-10T10:22:53.589Z,44.25
2019-04-10T10:25:23.540Z,43.65
2019-04-10T10:27:52.870Z,44.13
2019-04-10T10:30:23.144Z,47.10
2019-04-10T10:32:53.166Z,43.70
2019-04-10T10:35:23.142Z,46.65
2019-04-10T10:37:52.682Z,44.88
2019-04-10T10:40:22.052Z,43.52
2019-04-10T10:42:51.932Z,44.05
2019-04-10T10:45:21.390Z,42.03
2019-04-10T10:47:50.719Z,46.80
2019-04-10T10:50:22.094Z,44.88
2019-04-10T10:52:52.095Z,43.17
2019-04-10T10:55:23.303Z,45.45
2019-04-10T10:57:52.700Z,42.30
2019-04-10T11:00:23.083Z,44.95
2019-04-10T11:02:53.727Z,42.43
2019-04-10T11:05:27.402Z,45.10
2019-04-10T11:07:57.726Z,43.98
2019-04-10T11:10:27.583Z,44.10
2019-04-10T11:12:58.462Z,45.15
2019-04-10T11:15:27.977Z,44.42
2019-04-10T11:17:57.843Z,45.65
2019-04-10T11:20:28.037Z,43.98
2019-04-10T11:22:57.814Z,44.60
2019-04-10T11:25:28.619Z,43.50
2019-04-10T11:27:58.491Z,50.10
2019-04-10T11:30:28.734Z,45.35
2019-04-10T11:32:59.993Z,45.90
2019-04-10T11:35:29.400Z,45.83
2019-04-10T11:38:00.522Z,44.95
2019-04-10T11:40:29.721Z,45.65
2019-04-10T11:43:02.802Z,46.15
2019-04-10T11:45:40.894Z,46.10
2019-04-10T11:48:02.605Z,42.93
2019-04-10T11:50:32.660Z,44.77
2019-04-10T11:53:04.408Z,45.28
2019-04-10T11:55:43.158Z,43.63
2019-04-10T11:58:05.717Z,49.48
2019-04-10T12:00:47.584Z,48.95
2019-04-10T12:03:12.527Z,47.75
2019-04-10T12:05:42.306Z,57.58
2019-04-10T12:13:16.440Z,47.13
2019-04-10T12:15:45.030Z,42.48
2019-04-10T12:18:14.363Z,45.52
2019-04-10T12:20:43.626Z,45.98
2019-04-10T12:23:12.922Z,47.78
2019-04-10T12:25:44.999Z,44.75
2019-04-10T12:28:14.316Z,43.05
2019-04-10T12:30:43.666Z,46.92
2019-04-10T12:33:14.034Z,44.23
2019-04-10T12:35:43.324Z,45.95
2019-04-10T12:38:13.395Z,44.30
2019-04-10T12:40:44.881Z,44.73
2019-04-10T12:43:14.155Z,45.08
2019-04-10T12:45:44.372Z,44.83
2019-04-10T12:48:14.538Z,45.48
2019-04-10T12:50:43.965Z,44.98
2019-04-10T12:53:13.586Z,43.55
2019-04-10T12:55:43.991Z,45.52
2019-04-10T12:58:17.247Z,43.95
2019-04-10T13:00:44.576Z,42.27
2019-04-10T13:03:14.598Z,40.40
2019-04-10T13:05:45.140Z,39.88
2019-04-10T13:08:21.211Z,39.10
2019-04-10T13:10:45.606Z,38.67
2019-04-10T13:13:15.099Z,40.05
2019-04-10T13:15:45.393Z,40.25
2019-04-10T13:18:14.856Z,41.40
2019-04-10T13:20:44.240Z,39.30
2019-04-10T13:23:14.897Z,41.68
2019-04-10T13:25:55.042Z,40.98
2019-04-10T13:28:17.009Z,40.05
2019-04-10T13:30:53.210Z,40.88
2019-04-10T13:33:18.410Z,41.37
2019-04-10T13:35:47.699Z,40.03
2019-04-10T13:38:25.380Z,41.65
2019-04-10T13:40:50.065Z,42.25
2019-04-10T13:43:20.036Z,42.80
2019-04-10T13:45:49.375Z,39.83
2019-04-10T13:48:18.759Z,41.83
2019-04-10T13:50:48.709Z,43.48
2019-04-10T13:53:18.095Z,41.40
2019-04-10T13:55:48.511Z,40.92
2019-04-10T13:58:19.228Z,43.13
2019-04-10T14:00:49.706Z,42.65
2019-04-10T14:03:19.742Z,42.58
2019-04-10T14:05:50.027Z,41.77
2019-04-10T14:08:19.386Z,41.45
2019-04-10T14:10:48.907Z,41.50
2019-04-10T14:13:18.317Z,42.78
2019-04-10T14:15:48.439Z,43.63
2019-04-10T14:18:18.592Z,40.92
2019-04-10T14:20:47.943Z,42.48
2019-04-10T14:23:22.246Z,44.85
2019-04-10T14:26:00.591Z,43.68
2019-04-10T14:28:33.369Z,43.00
2019-04-10T14:31:04.286Z,44.30
2019-04-10T14:33:40.491Z,47.00
2019-04-10T14:36:09.791Z,44.25
2019-04-10T14:38:39.219Z,44.38
2019-04-10T14:41:09.391Z,44.63
2019-04-10T14:43:39.951Z,44.60
2019-04-10T14:46:10.360Z,44.50
2019-04-10T14:48:40.391Z,41.20
2019-04-10T14:51:10.284Z,45.20
2019-04-10T14:53:39.610Z,45.55
2019-04-10T14:56:08.874Z,43.78
2019-04-10T14:58:39.049Z,44.48
2019-04-10T15:01:09.015Z,44.00
2019-04-10T15:03:40.296Z,43.35
2019-04-10T15:06:09.746Z,46.50
2019-04-10T15:08:39.709Z,45.60
2019-04-10T15:11:09.103Z,46.65
2019-04-10T15:13:38.362Z,45.48
2019-04-10T15:16:07.722Z,46.63
2019-04-10T15:18:37.252Z,45.40
2019-04-10T15:21:06.990Z,45.73
2019-04-10T15:23:36.382Z,41.35
2019-04-10T15:26:06.039Z,43.87
2019-04-10T15:28:36.052Z,46.08
2019-04-10T15:31:06.687Z,47.88
2019-04-10T15:33:37.252Z,45.90
2019-04-10T15:36:07.445Z,48.58
2019-04-10T15:38:37.939Z,47.70
2019-04-10T15:41:08.493Z,46.15
2019-04-10T15:43:37.818Z,47.48
2019-04-10T15:46:07.249Z,46.53
2019-04-10T15:48:37.495Z,46.80
2019-04-10T15:51:07.741Z,46.13
2019-04-10T15:53:37.075Z,49.08
2019-04-10T15:56:06.450Z,48.30
2019-04-10T15:58:35.767Z,48.30
2019-04-10T16:01:07.738Z,48.48
2019-04-10T16:03:38.698Z,49.53
2019-04-10T16:06:08.200Z,49.80
2019-04-10T16:08:38.607Z,49.45
2019-04-10T16:11:12.331Z,48.00
2019-04-10T16:13:46.376Z,50.00
2019-04-10T16:16:35.547Z,49.50
2019-04-10T16:19:15.808Z,51.30
2019-04-10T16:21:45.783Z,49.67
2019-04-10T16:24:16.819Z,48.48
2019-04-10T16:26:46.076Z,48.35
2019-04-10T16:29:15.998Z,49.38
2019-04-10T16:31:46.174Z,48.17
2019-04-10T16:34:15.662Z,51.75
2019-04-10T16:36:45.815Z,51.63
2019-04-10T16:39:18.075Z,49.63
2019-04-10T16:42:07.012Z,52.62
2019-04-10T16:44:37.289Z,51.35
2019-04-10T16:47:06.578Z,52.17
2019-04-10T16:49:37.099Z,51.20
2019-04-10T16:52:07.102Z,52.13
2019-04-10T16:54:37.437Z,49.60
2019-04-10T16:57:06.795Z,48.83
2019-04-10T16:59:37.484Z,50.00
2019-04-10T17:02:07.294Z,49.93
2019-04-10T17:04:36.587Z,52.20
2019-04-10T17:07:06.421Z,51.65
2019-04-10T17:09:36.578Z,51.95
2019-04-10T17:12:06.572Z,52.08
2019-04-10T17:14:37.741Z,54.25
2019-04-10T17:17:08.350Z,51.18
2019-04-10T17:19:48.402Z,51.73
2019-04-10T17:22:08.978Z,54.48
2019-04-10T17:24:39.786Z,55.12
2019-04-10T17:27:09.236Z,55.90
2019-04-10T17:29:39.025Z,52.23
2019-04-10T17:32:08.460Z,56.15
2019-04-10T17:34:38.877Z,54.53
2019-04-10T17:37:09.550Z,52.03
2019-04-10T17:39:39.719Z,53.92
2019-04-10T17:42:10.174Z,52.88
2019-04-10T17:44:40.176Z,52.45
2019-04-10T17:47:09.968Z,53.55
2019-04-10T17:49:39.399Z,54.20
2019-04-10T17:52:08.757Z,54.30
2019-04-10T17:54:39.207Z,55.75
2019-04-10T17:57:08.658Z,54.00
2019-04-10T17:59:38.560Z,55.48
2019-04-10T18:02:09.626Z,54.33
2019-04-10T18:04:40.086Z,58.00
2019-04-10T18:07:10.080Z,54.58
2019-04-10T18:09:40.893Z,54.80
2019-04-10T18:12:12.161Z,60.03
2019-04-10T18:14:42.631Z,57.83
2019-04-10T18:17:12.439Z,60.88
2019-04-10T18:19:42.010Z,58.00
2019-04-10T18:22:12.156Z,55.23
2019-04-10T18:24:41.607Z,58.15
2019-04-10T18:27:10.896Z,59.13
2019-04-10T18:29:41.325Z,59.33
2019-04-10T18:32:11.675Z,55.90
2019-04-10T18:34:42.335Z,56.83
2019-04-10T18:37:14.624Z,59.93
2019-04-10T18:39:43.001Z,58.55
2019-04-10T18:42:13.871Z,59.58
2019-04-10T18:44:43.207Z,61.60
2019-04-10T18:47:13.128Z,58.50
2019-04-10T18:49:43.390Z,57.80
2019-04-10T18:52:13.667Z,57.15
2019-04-10T18:54:43.594Z,53.38
2019-04-10T18:57:13.671Z,55.08
2019-04-10T18:59:46.938Z,58.60
2019-04-10T19:02:23.347Z,59.38
2019-04-10T19:04:55.111Z,55.92
2019-04-10T19:07:25.118Z,57.73
2019-04-10T19:09:54.705Z,56.08
2019-04-10T19:12:24.390Z,57.38
2019-04-10T19:14:54.198Z,58.23
2019-04-10T19:17:24.492Z,55.40
2019-04-10T19:19:53.927Z,59.13
2019-04-10T19:22:24.328Z,59.48
2019-04-10T19:24:54.472Z,59.45
2019-04-10T19:27:25.042Z,59.80
2019-04-10T19:29:55.001Z,58.98
2019-04-10T19:32:26.728Z,57.98
2019-04-10T19:34:57.043Z,58.83
2019-04-10T19:37:26.431Z,60.23
2019-04-10T19:39:56.528Z,60.80
2019-04-10T19:42:27.068Z,60.40
2019-04-10T19:44:57.704Z,56.00
2019-04-10T19:47:27.043Z,59.10
2019-04-10T19:49:57.102Z,56.30
2019-04-10T19:52:26.570Z,56.05
2019-04-10T19:54:57.594Z,59.80
2019-04-10T19:57:29.054Z,59.95
2019-04-10T19:59:58.459Z,58.78
2019-04-10T20:02:27.756Z,61.48
2019-04-10T20:04:57.090Z,59.95
2019-04-10T20:07:27.065Z,61.23
2019-04-10T20:09:56.932Z,57.13
2019-04-10T20:12:26.743Z,57.55
2019-04-10T20:14:57.393Z,58.15
2019-04-10T20:17:26.836Z,59.53
2019-04-10T20:19:57.175Z,57.08
2019-04-10T20:22:28.189Z,61.02
2019-04-10T20:24:58.071Z,59.85
2019-04-10T20:27:27.814Z,60.78
2019-04-10T20:29:57.254Z,62.00
2019-04-10T20:32:26.546Z,60.88
2019-04-10T20:34:55.960Z,56.23
2019-04-10T20:37:25.271Z,60.63
2019-04-10T20:39:55.754Z,58.63
2019-04-10T20:42:26.656Z,58.10
2019-04-10T20:44:56.738Z,57.58
2019-04-10T20:47:27.231Z,59.67
2019-04-10T20:49:56.578Z,58.90
2019-04-10T20:52:26.325Z,59.13
2019-04-10T20:54:55.634Z,59.03
2019-04-10T20:57:25.616Z,60.67
2019-04-10T20:59:55.325Z,61.40
2019-04-10T21:02:24.692Z,59.95
2019-04-10T21:05:00.454Z,59.00
2019-04-10T21:07:25.519Z,59.63
2019-04-10T21:09:54.925Z,60.52
2019-04-10T21:12:24.218Z,61.45
2019-04-10T21:14:54.397Z,60.10
2019-04-10T21:17:24.869Z,59.65
2019-04-10T21:19:54.282Z,59.15
2019-04-10T21:22:24.450Z,58.10
2019-04-10T21:24:54.146Z,59.23
2019-04-10T21:27:23.499Z,60.03
2019-04-10T21:29:57.455Z,61.18
2019-04-10T21:32:43.487Z,58.98
2019-04-10T21:35:14.411Z,57.17
2019-04-10T21:37:43.707Z,59.65
2019-04-10T21:40:14.485Z,60.45
2019-04-10T21:42:43.851Z,61.65
2019-04-10T21:45:13.727Z,59.83
2019-04-10T21:47:43.936Z,58.68
2019-04-10T21:50:13.384Z,59.13
2019-04-10T21:52:43.477Z,58.60
2019-04-10T21:55:12.946Z,59.67
2019-04-10T21:57:42.531Z,60.75
2019-04-10T22:00:12.265Z,60.23
2019-04-10T22:02:45.010Z,60.12
2019-04-10T22:05:14.554Z,59.23
2019-04-10T22:07:48.604Z,59.75
2019-04-10T22:10:25.967Z,56.63
2019-04-10T22:12:57.452Z,57.70
2019-04-10T22:15:29.552Z,56.15
2019-04-10T22:17:59.011Z,57.58
2019-04-10T22:20:28.345Z,56.73
2019-04-10T22:22:59.805Z,56.23
2019-04-10T22:25:29.849Z,56.60
2019-04-10T22:28:00.496Z,57.25
2019-04-10T22:30:29.966Z,56.77
2019-04-10T22:32:59.812Z,55.05
2019-04-10T22:35:29.232Z,55.43
2019-04-10T22:37:58.523Z,56.30
2019-04-10T22:40:29.042Z,53.33
2019-04-10T22:42:59.507Z,53.02
2019-04-10T22:45:31.122Z,53.50
2019-04-10T22:48:00.772Z,54.73
2019-04-10T22:50:31.064Z,54.08
2019-04-10T22:53:01.369Z,53.00
2019-04-10T22:55:31.748Z,53.40
2019-04-10T22:58:02.361Z,53.13
2019-04-10T23:00:32.696Z,54.50
2019-04-10T23:03:03.467Z,53.90
2019-04-10T23:05:34.464Z,51.37
2019-04-10T23:08:04.883Z,51.85
2019-04-10T23:10:35.155Z,54.27
2019-04-10T23:13:06.808Z,51.25
2019-04-10T23:15:35.695Z,49.23
2019-04-10T23:18:05.480Z,53.98
2019-04-10T23:20:34.889Z,51.60
2019-04-10T23:23:04.244Z,51.85
2019-04-10T23:25:34.318Z,51.98
2019-04-10T23:28:03.637Z,52.00
2019-04-10T23:30:33.083Z,53.38
2019-04-10T23:33:03.926Z,52.60
2019-04-10T23:35:33.724Z,52.55
2019-04-10T23:38:04.289Z,52.03
2019-04-10T23:40:34.776Z,50.80
2019-04-10T23:43:12.167Z,52.33
2019-04-10T23:45:35.038Z,51.80
2019-04-10T23:48:04.534Z,50.03
2019-04-10T23:50:34.512Z,53.30
2019-04-10T23:53:04.469Z,52.43
2019-04-10T23:55:34.346Z,51.73
2019-04-10T23:58:03.599Z,51.23
